createdAt,value
2019-05-30T00:00:14.527Z,2.87
2019-05-30T00:02:27.231Z,3.83
2019-05-30T00:04:56.360Z,3.60
2019-05-30T00:07:25.512Z,3.40
2019-05-30T00:09:56.362Z,3.10
2019-05-30T00:12:25.668Z,3.27
2019-05-30T00:14:54.774Z,3.73
2019-05-30T00:17:23.914Z,3.67
2019-05-30T00:19:53.060Z,3.10
2019-05-30T00:22:22.156Z,3.70
2019-05-30T00:24:51.344Z,3.43
2019-05-30T00:27:20.629Z,3.43
2019-05-30T00:29:49.784Z,3.37
2019-05-30T00:32:18.920Z,3.53
2019-05-30T00:34:48.025Z,3.47
2019-05-30T00:37:17.226Z,3.33
2019-05-30T00:39:46.325Z,3.17
2019-05-30T00:42:15.438Z,3.77
2019-05-30T00:44:44.524Z,3.33
2019-05-30T00:47:13.611Z,3.40
2019-05-30T00:49:42.792Z,3.30
2019-05-30T00:52:12.021Z,3.87
2019-05-30T00:54:41.306Z,3.13
2019-05-30T00:57:10.512Z,3.10
2019-05-30T00:59:39.621Z,3.70
2019-05-30T01:02:08.820Z,3.47
2019-05-30T01:04:37.922Z,3.30
2019-05-30T01:07:07.256Z,3.37
2019-05-30T01:09:36.597Z,3.80
2019-05-30T01:12:05.733Z,3.43
2019-05-30T01:14:34.905Z,3.20
2019-05-30T01:17:05.175Z,3.63
2019-05-30T01:19:35.507Z,3.30
2019-05-30T01:22:05.534Z,3.50
2019-05-30T01:24:34.781Z,3.50
2019-05-30T01:27:03.929Z,3.30
2019-05-30T01:29:33.120Z,3.73
2019-05-30T01:32:21.239Z,3.20
2019-05-30T01:34:50.347Z,3.50
2019-05-30T01:37:19.449Z,3.07
2019-05-30T01:39:48.643Z,3.63
2019-05-30T01:42:17.771Z,3.67
2019-05-30T01:44:46.886Z,3.67
2019-05-30T01:47:17.767Z,3.30
2019-05-30T01:49:46.990Z,3.30
2019-05-30T01:52:17.567Z,3.77
2019-05-30T01:54:46.657Z,3.40
2019-05-30T01:57:15.761Z,3.23
2019-05-30T01:59:44.931Z,4.20
2019-05-30T02:02:14.102Z,3.60
2019-05-30T02:04:43.227Z,3.37
2019-05-30T02:07:12.325Z,3.57
2019-05-30T02:09:41.443Z,3.50
2019-05-30T02:12:11.606Z,3.30
2019-05-30T02:14:40.788Z,3.80
2019-05-30T02:17:10.074Z,3.30
2019-05-30T02:19:39.251Z,3.47
2019-05-30T02:22:08.402Z,3.40
2019-05-30T02:24:37.518Z,3.30
2019-05-30T02:27:06.676Z,3.20
2019-05-30T02:29:35.780Z,3.23
2019-05-30T02:32:05.066Z,3.30
2019-05-30T02:34:34.659Z,3.30
2019-05-30T02:37:05.504Z,3.13
2019-05-30T02:39:34.750Z,3.33
2019-05-30T02:42:05.189Z,3.70
2019-05-30T02:44:34.595Z,3.40
2019-05-30T02:47:05.445Z,3.60
2019-05-30T02:49:34.549Z,3.67
2019-05-30T02:52:04.754Z,4.73
2019-05-30T02:54:34.508Z,3.40
2019-05-30T02:57:03.765Z,3.40
2019-05-30T02:59:34.370Z,3.73
2019-05-30T03:02:07.313Z,3.40
2019-05-30T03:04:34.384Z,3.83
2019-05-30T03:07:04.104Z,3.60
2019-05-30T03:09:34.515Z,3.83
2019-05-30T03:12:04.083Z,3.83
2019-05-30T03:14:33.925Z,3.70
2019-05-30T03:17:05.293Z,3.53
2019-05-30T03:19:34.291Z,3.70
2019-05-30T03:22:05.202Z,4.10
2019-05-30T03:24:34.529Z,3.60
2019-05-30T03:27:04.885Z,3.57
2019-05-30T03:29:34.495Z,3.63
2019-05-30T03:32:39.739Z,3.77
2019-05-30T03:34:34.595Z,3.73
2019-05-30T03:37:08.425Z,3.80
2019-05-30T03:39:34.517Z,3.50
2019-05-30T03:42:04.543Z,3.93
2019-05-30T03:44:33.726Z,5.53
2019-05-30T03:47:06.402Z,3.73
2019-05-30T03:49:39.504Z,4.43
2019-05-30T03:52:14.480Z,4.03
2019-05-30T03:54:42.362Z,3.87
2019-05-30T03:57:18.996Z,4.20
2019-05-30T03:59:54.028Z,4.10
2019-05-30T04:02:58.362Z,4.23
2019-05-30T04:05:29.507Z,4.37
2019-05-30T04:08:00.501Z,4.40
2019-05-30T04:10:34.021Z,3.90
2019-05-30T04:13:41.922Z,4.10
2019-05-30T04:16:11.350Z,4.53
2019-05-30T04:18:41.840Z,4.33
2019-05-30T04:21:13.106Z,3.90
2019-05-30T04:23:41.775Z,3.90
2019-05-30T04:26:11.497Z,4.30
2019-05-30T04:28:40.786Z,4.43
2019-05-30T04:31:10.085Z,4.37
2019-05-30T04:33:39.284Z,4.30
2019-05-30T04:36:10.414Z,4.20
2019-05-30T04:38:39.513Z,4.23
2019-05-30T04:41:08.949Z,4.27
2019-05-30T04:43:38.274Z,4.67
2019-05-30T04:46:07.406Z,4.40
2019-05-30T04:48:36.490Z,4.33
2019-05-30T04:51:05.669Z,4.00
2019-05-30T04:53:34.900Z,4.53
2019-05-30T04:56:04.185Z,3.90
2019-05-30T04:58:33.297Z,4.30
2019-05-30T05:01:02.441Z,4.13
2019-05-30T05:03:45.293Z,4.07
2019-05-30T05:06:02.382Z,4.27
2019-05-30T05:08:31.990Z,4.37
2019-05-30T05:11:01.087Z,4.43
2019-05-30T05:13:30.182Z,4.40
2019-05-30T05:15:59.319Z,4.13
2019-05-30T05:18:28.427Z,3.93
2019-05-30T05:20:57.516Z,3.90
2019-05-30T05:23:26.653Z,4.60
2019-05-30T05:26:00.958Z,3.53
2019-05-30T05:28:28.199Z,5.57
2019-05-30T05:30:57.313Z,4.37
2019-05-30T05:33:26.442Z,4.67
2019-05-30T05:35:55.539Z,4.90
2019-05-30T05:38:24.634Z,5.33
2019-05-30T05:40:53.764Z,4.20
2019-05-30T05:43:22.912Z,4.70
2019-05-30T05:45:52.020Z,4.53
2019-05-30T05:48:21.146Z,4.97
2019-05-30T05:50:50.256Z,4.47
2019-05-30T05:53:19.366Z,4.50
2019-05-30T05:55:48.503Z,4.87
2019-05-30T05:58:18.988Z,4.47
2019-05-30T06:00:48.382Z,5.10
2019-05-30T06:03:18.848Z,5.20
2019-05-30T06:05:52.950Z,5.33
2019-05-30T06:08:19.584Z,5.00
2019-05-30T06:10:48.791Z,5.00
2019-05-30T06:13:18.666Z,4.67
2019-05-30T06:15:48.127Z,5.03
2019-05-30T06:18:18.078Z,5.35
2019-05-30T06:20:47.377Z,5.35
2019-05-30T06:23:17.333Z,5.65
2019-05-30T06:25:46.610Z,5.37
2019-05-30T06:28:15.937Z,5.70
2019-05-30T06:30:45.143Z,5.62
2019-05-30T06:33:14.358Z,5.50
2019-05-30T06:35:43.473Z,5.47
2019-05-30T06:38:12.807Z,6.12
2019-05-30T06:40:41.994Z,5.33
2019-05-30T06:43:11.172Z,5.33
2019-05-30T06:45:40.287Z,5.70
2019-05-30T06:48:09.414Z,5.08
2019-05-30T06:50:38.545Z,5.92
2019-05-30T06:53:07.654Z,5.75
2019-05-30T06:55:36.746Z,5.83
2019-05-30T06:58:05.889Z,5.67
2019-05-30T07:00:35.192Z,5.33
2019-05-30T07:03:04.440Z,5.15
2019-05-30T07:05:34.659Z,5.47
2019-05-30T07:08:04.553Z,6.12
2019-05-30T07:10:33.695Z,5.15
2019-05-30T07:13:02.853Z,5.70
2019-05-30T07:15:34.433Z,5.30
2019-05-30T07:18:03.721Z,5.58
2019-05-30T07:20:33.823Z,5.53
2019-05-30T07:23:03.114Z,5.47
2019-05-30T07:25:32.247Z,5.55
2019-05-30T07:28:03.276Z,5.03
2019-05-30T07:30:32.407Z,5.08
2019-05-30T07:33:01.604Z,4.50
2019-05-30T07:35:32.027Z,5.80
2019-05-30T07:38:01.433Z,5.25
2019-05-30T07:40:32.708Z,5.42
2019-05-30T07:43:02.053Z,5.58
2019-05-30T07:45:31.204Z,5.03
2019-05-30T07:48:00.353Z,5.08
2019-05-30T07:50:30.453Z,5.05
2019-05-30T07:52:59.804Z,5.15
2019-05-30T07:55:28.972Z,4.78
2019-05-30T07:57:58.111Z,5.45
2019-05-30T08:00:27.486Z,5.42
2019-05-30T08:02:56.802Z,4.78
2019-05-30T08:05:26.706Z,5.22
2019-05-30T08:07:56.031Z,4.85
2019-05-30T08:10:25.204Z,4.53
2019-05-30T08:12:54.435Z,4.92
2019-05-30T08:15:25.232Z,4.67
2019-05-30T08:17:54.492Z,4.28
2019-05-30T08:20:25.289Z,3.83
2019-05-30T08:22:54.522Z,3.98
2019-05-30T08:25:23.621Z,3.87
2019-05-30T08:27:52.810Z,4.40
2019-05-30T08:30:22.392Z,4.42
2019-05-30T08:32:51.521Z,4.15
2019-05-30T08:35:20.696Z,3.80
2019-05-30T08:37:49.844Z,3.30
2019-05-30T08:40:20.044Z,3.45
2019-05-30T08:42:49.189Z,3.25
2019-05-30T08:45:19.827Z,4.30
2019-05-30T08:47:50.263Z,3.67
2019-05-30T08:50:19.644Z,3.45
2019-05-30T08:52:48.823Z,2.90
2019-05-30T08:55:18.213Z,2.77
2019-05-30T08:57:47.271Z,2.83
2019-05-30T09:00:17.016Z,2.72
2019-05-30T09:02:46.925Z,2.40
2019-05-30T09:05:17.551Z,2.50
2019-05-30T09:07:46.636Z,2.45
2019-05-30T09:10:16.630Z,2.40
2019-05-30T09:12:49.388Z,2.37
2019-05-30T09:15:17.118Z,2.10
2019-05-30T09:17:46.814Z,2.15
2019-05-30T09:20:16.449Z,2.70
2019-05-30T09:22:47.333Z,3.33
2019-05-30T09:25:18.411Z,2.20
2019-05-30T09:27:48.368Z,2.65
2019-05-30T09:30:18.855Z,2.50
2019-05-30T09:32:48.910Z,1.98
2019-05-30T09:35:18.694Z,2.22
2019-05-30T09:37:50.612Z,2.08
2019-05-30T09:40:20.401Z,1.90
2019-05-30T09:42:50.375Z,2.35
2019-05-30T09:45:21.755Z,2.15
2019-05-30T09:47:51.362Z,1.98
2019-05-30T09:50:21.289Z,1.62
2019-05-30T09:52:51.374Z,1.52
2019-05-30T09:55:22.259Z,1.72
2019-05-30T09:57:51.767Z,2.15
2019-05-30T10:00:21.810Z,1.82
2019-05-30T10:02:52.386Z,1.40
2019-05-30T10:05:24.396Z,2.08
2019-05-30T10:07:53.055Z,2.37
2019-05-30T10:10:22.394Z,1.60
2019-05-30T10:12:52.707Z,2.05
2019-05-30T10:15:22.378Z,1.67
2019-05-30T10:17:52.796Z,1.82
2019-05-30T10:20:22.821Z,1.92
2019-05-30T10:22:53.587Z,1.75
2019-05-30T10:25:22.974Z,2.75
2019-05-30T10:27:54.411Z,1.62
2019-05-30T10:30:24.105Z,1.62
2019-05-30T10:32:53.805Z,1.60
2019-05-30T10:35:23.216Z,1.50
2019-05-30T10:37:52.799Z,1.40
2019-05-30T10:40:23.621Z,1.50
2019-05-30T10:42:53.295Z,1.65
2019-05-30T10:45:24.402Z,1.77
2019-05-30T10:47:53.757Z,1.60
2019-05-30T10:50:23.134Z,1.47
2019-05-30T10:52:53.472Z,2.50
2019-05-30T10:55:23.349Z,2.58
2019-05-30T10:57:56.292Z,2.20
2019-05-30T11:00:31.402Z,2.77
2019-05-30T11:03:00.547Z,1.52
2019-05-30T11:05:29.688Z,2.02
2019-05-30T11:08:06.342Z,1.60
2019-05-30T11:10:38.144Z,1.67
2019-05-30T11:13:09.769Z,1.40
2019-05-30T11:15:39.130Z,1.60
2019-05-30T11:18:08.338Z,2.47
2019-05-30T11:20:37.495Z,1.60
2019-05-30T11:23:06.686Z,2.25
2019-05-30T11:25:36.025Z,1.82
2019-05-30T11:28:05.668Z,1.50
2019-05-30T11:30:34.992Z,2.10
2019-05-30T11:33:04.090Z,1.45
2019-05-30T11:35:33.584Z,2.60
2019-05-30T11:38:03.086Z,1.90
2019-05-30T11:40:32.197Z,1.40
2019-05-30T11:43:01.349Z,1.75
2019-05-30T11:45:30.518Z,1.60
2019-05-30T11:48:00.113Z,1.10
2019-05-30T11:50:29.928Z,1.52
2019-05-30T11:53:00.192Z,1.47
2019-05-30T11:55:29.489Z,1.62
2019-05-30T11:57:58.621Z,1.72
2019-05-30T12:00:28.597Z,2.42
2019-05-30T12:02:58.689Z,1.50
2019-05-30T12:05:28.170Z,2.12
2019-05-30T12:07:57.293Z,1.50
2019-05-30T12:10:26.722Z,1.72
2019-05-30T12:12:57.217Z,1.75
2019-05-30T12:15:26.613Z,2.70
2019-05-30T12:17:55.777Z,1.40
2019-05-30T12:20:24.878Z,2.60
2019-05-30T12:22:54.005Z,1.95
2019-05-30T12:25:23.134Z,1.20
2019-05-30T12:27:52.237Z,1.15
2019-05-30T12:30:23.068Z,0.88
2019-05-30T12:32:52.605Z,1.77
2019-05-30T12:35:21.863Z,1.67
2019-05-30T12:37:56.154Z,1.57
2019-05-30T12:40:23.041Z,2.10
2019-05-30T12:42:55.843Z,2.05
2019-05-30T12:45:23.141Z,2.40
2019-05-30T12:47:52.985Z,1.60
2019-05-30T12:50:22.474Z,2.17
2019-05-30T12:52:51.584Z,1.40
2019-05-30T12:55:20.707Z,1.32
2019-05-30T12:57:49.813Z,1.50
2019-05-30T13:00:20.187Z,1.17
2019-05-30T13:02:49.322Z,1.10
2019-05-30T13:05:18.550Z,1.00
2019-05-30T13:07:47.672Z,1.25
2019-05-30T13:10:17.241Z,1.05
2019-05-30T13:12:46.329Z,1.32
2019-05-30T13:15:15.744Z,1.27
2019-05-30T13:17:44.856Z,1.15
2019-05-30T13:20:16.877Z,1.22
2019-05-30T13:22:45.989Z,1.60
2019-05-30T13:25:16.447Z,1.47
2019-05-30T13:27:45.530Z,2.17
2019-05-30T13:30:15.814Z,0.90
2019-05-30T13:32:44.967Z,1.05
2019-05-30T13:35:14.757Z,0.95
2019-05-30T13:37:43.918Z,1.72
2019-05-30T13:40:24.694Z,1.67
2019-05-30T13:42:44.728Z,0.90
2019-05-30T13:45:14.634Z,0.88
2019-05-30T13:47:43.746Z,0.70
2019-05-30T13:50:14.470Z,0.72
2019-05-30T13:52:43.905Z,0.80
2019-05-30T13:55:13.177Z,0.93
2019-05-30T13:57:42.478Z,1.00
2019-05-30T14:00:13.156Z,1.55
2019-05-30T14:02:42.280Z,1.12
2019-05-30T14:05:12.030Z,0.75
2019-05-30T14:07:41.165Z,1.05
2019-05-30T14:10:11.335Z,1.07
2019-05-30T14:12:40.569Z,1.20
2019-05-30T14:15:14.099Z,1.50
2019-05-30T14:17:42.515Z,1.02
2019-05-30T14:20:13.685Z,0.68
2019-05-30T14:22:42.812Z,0.70
2019-05-30T14:25:12.463Z,0.70
2019-05-30T14:27:41.594Z,1.00
2019-05-30T14:30:12.922Z,2.50
2019-05-30T14:32:42.389Z,1.20
2019-05-30T14:35:13.866Z,2.80
2019-05-30T14:37:43.235Z,1.20
2019-05-30T14:40:13.911Z,0.93
2019-05-30T14:42:43.033Z,1.25
2019-05-30T14:45:14.543Z,1.00
2019-05-30T14:47:43.837Z,1.15
2019-05-30T14:50:14.951Z,1.60
2019-05-30T14:52:44.026Z,1.02
2019-05-30T14:55:13.472Z,1.32
2019-05-30T14:57:42.678Z,1.20
2019-05-30T15:00:14.498Z,1.02
2019-05-30T15:02:43.669Z,1.90
2019-05-30T15:05:15.594Z,1.50
2019-05-30T15:07:44.982Z,0.95
2019-05-30T15:10:17.084Z,1.37
2019-05-30T15:12:46.374Z,1.60
2019-05-30T15:15:18.676Z,1.80
2019-05-30T15:17:47.568Z,1.72
2019-05-30T15:20:18.167Z,1.60
2019-05-30T15:22:47.516Z,1.95
2019-05-30T15:25:18.126Z,2.17
2019-05-30T15:27:47.599Z,1.65
2019-05-30T15:30:18.454Z,1.62
2019-05-30T15:32:47.685Z,2.27
2019-05-30T15:35:19.041Z,1.72
2019-05-30T15:37:48.184Z,1.95
2019-05-30T15:40:17.765Z,3.67
2019-05-30T15:42:46.915Z,2.35
2019-05-30T15:45:16.396Z,2.62
2019-05-30T15:47:45.518Z,3.17
2019-05-30T15:50:15.888Z,2.60
2019-05-30T15:52:47.493Z,2.67
2019-05-30T15:55:17.463Z,3.55
2019-05-30T15:57:47.164Z,2.20
2019-05-30T16:00:17.952Z,2.37
2019-05-30T16:02:47.322Z,2.05
2019-05-30T16:05:16.871Z,2.17
2019-05-30T16:07:45.987Z,2.35
2019-05-30T16:10:16.859Z,2.55
2019-05-30T16:12:46.191Z,1.80
2019-05-30T16:15:17.476Z,2.05
2019-05-30T16:17:46.770Z,2.15
2019-05-30T16:20:16.151Z,1.82
2019-05-30T16:22:45.291Z,1.75
2019-05-30T16:25:15.612Z,3.05
2019-05-30T16:27:44.840Z,3.02
2019-05-30T16:30:19.711Z,3.67
2019-05-30T16:32:45.034Z,3.92
2019-05-30T16:35:14.280Z,2.75
2019-05-30T16:37:43.422Z,3.30
2019-05-30T16:40:12.689Z,3.45
2019-05-30T16:42:41.866Z,3.10
2019-05-30T16:45:11.315Z,3.37
2019-05-30T16:47:40.512Z,4.25
2019-05-30T16:50:10.377Z,3.52
2019-05-30T16:52:39.492Z,3.80
2019-05-30T16:55:09.354Z,4.42
2019-05-30T16:57:38.596Z,4.90
2019-05-30T17:00:08.369Z,6.53
2019-05-30T17:02:37.496Z,5.80
2019-05-30T17:05:06.928Z,4.97
2019-05-30T17:07:36.064Z,4.90
2019-05-30T17:10:21.514Z,4.70
2019-05-30T17:12:36.539Z,4.75
2019-05-30T17:15:06.062Z,3.98
2019-05-30T17:17:35.249Z,4.22
2019-05-30T17:20:04.882Z,7.08
2019-05-30T17:22:34.051Z,13.08
2019-05-30T17:25:03.614Z,18.50
2019-05-30T17:27:32.818Z,13.20
2019-05-30T17:30:01.914Z,9.15
2019-05-30T17:32:31.039Z,9.03
2019-05-30T17:35:00.142Z,8.28
2019-05-30T17:37:29.545Z,6.75
2019-05-30T17:39:58.680Z,6.25
2019-05-30T17:42:29.000Z,5.90
2019-05-30T17:44:59.122Z,5.40
2019-05-30T17:47:29.461Z,5.33
2019-05-30T17:49:58.702Z,4.90
2019-05-30T17:52:30.226Z,4.25
2019-05-30T17:54:59.374Z,6.85
2019-05-30T17:57:28.504Z,5.90
2019-05-30T17:59:57.624Z,8.28
2019-05-30T18:02:28.564Z,7.28
2019-05-30T18:04:57.793Z,6.72
2019-05-30T18:07:26.979Z,5.53
2019-05-30T18:09:56.182Z,4.53
2019-05-30T18:12:25.262Z,5.67
2019-05-30T18:14:54.418Z,5.28
2019-05-30T18:17:23.509Z,4.28
2019-05-30T18:19:52.660Z,3.62
2019-05-30T18:22:21.776Z,3.72
2019-05-30T18:24:50.974Z,3.30
2019-05-30T18:27:20.146Z,4.12
2019-05-30T18:29:49.251Z,3.25
2019-05-30T18:32:18.375Z,3.42
2019-05-30T18:34:47.513Z,3.22
2019-05-30T18:37:16.627Z,2.90
2019-05-30T18:39:45.755Z,3.10
2019-05-30T18:42:15.053Z,2.33
2019-05-30T18:44:44.156Z,2.00
2019-05-30T18:47:13.243Z,2.50
2019-05-30T18:49:42.375Z,1.75
2019-05-30T18:52:11.467Z,1.92
2019-05-30T18:54:40.598Z,1.10
2019-05-30T18:57:09.763Z,1.50
2019-05-30T18:59:38.948Z,1.85
2019-05-30T19:02:08.120Z,1.90
2019-05-30T19:04:37.269Z,1.10
2019-05-30T19:07:06.451Z,1.32
2019-05-30T19:09:35.587Z,1.32
2019-05-30T19:12:06.036Z,1.02
2019-05-30T19:14:36.218Z,1.45
2019-05-30T19:17:06.115Z,1.72
2019-05-30T19:19:35.986Z,1.65
2019-05-30T19:22:05.205Z,1.47
2019-05-30T19:24:34.428Z,1.27
2019-05-30T19:27:03.534Z,1.45
2019-05-30T19:29:32.944Z,1.55
2019-05-30T19:32:02.152Z,1.65
2019-05-30T19:34:31.346Z,1.30
2019-05-30T19:37:00.425Z,1.50
2019-05-30T19:39:29.580Z,1.00
2019-05-30T19:41:58.699Z,1.65
2019-05-30T19:44:27.914Z,1.40
2019-05-30T19:46:57.001Z,1.50
2019-05-30T19:49:26.155Z,1.30
2019-05-30T19:51:55.319Z,1.40
2019-05-30T19:54:24.438Z,1.42
2019-05-30T19:56:53.640Z,1.52
2019-05-30T19:59:22.749Z,1.50
2019-05-30T20:01:51.885Z,1.45
2019-05-30T20:04:21.259Z,1.62
2019-05-30T20:06:50.361Z,1.60
2019-05-30T20:09:19.537Z,1.30
2019-05-30T20:12:02.111Z,2.47
2019-05-30T20:14:19.509Z,1.30
2019-05-30T20:16:48.679Z,1.45
2019-05-30T20:19:17.787Z,1.45
2019-05-30T20:21:46.924Z,1.42
2019-05-30T20:24:16.064Z,1.82
2019-05-30T20:26:45.194Z,1.90
2019-05-30T20:29:14.317Z,1.62
2019-05-30T20:31:43.759Z,1.40
2019-05-30T20:34:12.915Z,1.80
2019-05-30T20:36:42.689Z,1.77
2019-05-30T20:39:11.841Z,1.35
2019-05-30T20:41:41.020Z,1.85
2019-05-30T20:44:10.168Z,2.42
2019-05-30T20:46:39.328Z,1.60
2019-05-30T20:49:08.445Z,1.50
2019-05-30T20:51:38.583Z,1.60
2019-05-30T20:54:08.530Z,1.55
2019-05-30T20:56:37.659Z,1.87
2019-05-30T20:59:10.014Z,1.67
2019-05-30T21:01:37.786Z,1.98
2019-05-30T21:04:06.933Z,1.30
2019-05-30T21:06:36.659Z,2.22
2019-05-30T21:09:07.623Z,1.57
2019-05-30T21:11:38.259Z,1.70
2019-05-30T21:14:07.383Z,1.25
2019-05-30T21:16:37.686Z,1.72
2019-05-30T21:19:06.912Z,1.25
2019-05-30T21:21:36.043Z,1.20
2019-05-30T21:24:05.198Z,1.20
2019-05-30T21:26:34.393Z,1.50
2019-05-30T21:29:03.583Z,1.17
2019-05-30T21:31:32.702Z,1.95
2019-05-30T21:34:01.920Z,1.27
2019-05-30T21:36:31.099Z,1.40
2019-05-30T21:39:00.232Z,1.60
2019-05-30T21:41:29.400Z,1.20
2019-05-30T21:43:58.538Z,1.67
2019-05-30T21:46:27.641Z,1.30
2019-05-30T21:48:56.766Z,1.50
2019-05-30T21:51:25.883Z,2.77
2019-05-30T21:53:55.074Z,1.35
2019-05-30T21:56:24.240Z,1.95
2019-05-30T21:58:53.424Z,2.00
2019-05-30T22:01:31.777Z,1.57
2019-05-30T22:04:01.190Z,1.40
2019-05-30T22:06:30.428Z,1.40
2019-05-30T22:09:03.185Z,1.22
2019-05-30T22:11:30.666Z,2.15
2019-05-30T22:13:59.783Z,1.50
2019-05-30T22:16:28.876Z,1.45
2019-05-30T22:18:57.970Z,1.25
2019-05-30T22:21:27.093Z,1.30
2019-05-30T22:23:56.191Z,1.42
2019-05-30T22:26:25.309Z,1.95
2019-05-30T22:28:54.419Z,1.22
2019-05-30T22:31:23.547Z,1.30
2019-05-30T22:33:53.318Z,1.25
2019-05-30T22:36:22.562Z,1.62
2019-05-30T22:38:51.655Z,1.40
2019-05-30T22:41:20.794Z,1.07
2019-05-30T22:43:50.521Z,1.02
2019-05-30T22:46:19.871Z,1.42
2019-05-30T22:48:50.774Z,1.67
2019-05-30T22:51:19.903Z,1.52
2019-05-30T22:53:49.003Z,1.47
2019-05-30T22:56:18.109Z,1.67
2019-05-30T22:58:47.861Z,1.22
2019-05-30T23:01:17.092Z,1.30
2019-05-30T23:03:47.163Z,1.40
2019-05-30T23:06:16.497Z,1.60
2019-05-30T23:08:46.389Z,1.52
2019-05-30T23:11:15.609Z,2.17
2019-05-30T23:13:45.714Z,2.02
2019-05-30T23:16:14.991Z,1.55
2019-05-30T23:18:44.043Z,1.90
2019-05-30T23:21:13.175Z,1.17
2019-05-30T23:23:42.330Z,1.30
2019-05-30T23:26:11.516Z,1.50
2019-05-30T23:28:40.605Z,1.22
2019-05-30T23:31:09.728Z,1.50
2019-05-30T23:33:38.897Z,1.40
2019-05-30T23:36:08.002Z,1.30
2019-05-30T23:38:37.083Z,1.27
2019-05-30T23:41:06.195Z,2.22
2019-05-30T23:43:35.347Z,1.50
2019-05-30T23:46:04.481Z,1.20
2019-05-30T23:48:33.586Z,1.40
2019-05-30T23:51:02.696Z,1.32
2019-05-30T23:53:31.787Z,1.65
2019-05-30T23:56:01.228Z,1.55
2019-05-30T23:58:30.335Z,1.60
